Time;durP1;ratioP1;P1;durP2;ratioP2;P2;SDS_P1;SDS_P2;PMS_P1;PMS_P2;Temp;Humidity;BMP_temperature;BMP_pressure;BME280_temperature;BME280_humidity;BME280_pressure;Samples;Min_cycle;Max_cycle;Signal;HPM_P1;HPM_P2
2021/07/23 00:00:38;;;;;;;;;;;;;;;16.76;75.44;99657.94;4974827;28;20404;-61
2021/07/23 00:03:04;;;;;;;;;;;;;;;16.76;75.30;99657.94;4975323;28;19921;-61
2021/07/23 00:05:29;;;;;;;;;;;;;;;16.75;76.01;99659.84;4974716;28;20284;-62
2021/07/23 00:07:54;;;;;;;;;;;;;;;16.53;75.23;99660.13;4975374;28;19925;-62
2021/07/23 00:10:19;;;;;;;;;;;;;;;16.17;77.74;99653.88;4974585;28;20412;-61
2021/07/23 00:12:45;;;;;;;;;;;;;;;16.20;77.88;99658.78;4975209;28;19914;-62
2021/07/23 00:15:10;;;;;;;;;;;;;;;16.25;77.55;99657.94;4974728;28;19957;-62
2021/07/23 00:17:35;;;;;;;;;;;;;;;16.62;76.28;99663.09;4974985;28;20276;-61
2021/07/23 00:20:00;;;;;;;;;;;;;;;16.62;76.22;99649.56;4974851;28;19910;-62
2021/07/23 00:22:26;;;;;;;;;;;;;;;16.58;76.10;99657.41;4975208;28;19981;-61
2021/07/23 00:24:51;;;;;;;;;;;;;;;16.57;76.39;99649.56;4975028;28;19961;-60
2021/07/23 00:27:16;;;;;;;;;;;;;;;16.59;76.21;99658.22;4974405;28;19914;-61
2021/07/23 00:29:42;;;;;;;;;;;;;;;16.62;76.34;99654.97;4974808;28;19921;-61
2021/07/23 00:32:07;;;;;;;;;;;;;;;16.66;76.27;99657.97;4974487;28;19918;-60
2021/07/23 00:34:32;;;;;;;;;;;;;;;16.84;75.56;99654.72;4974794;28;20360;-60
2021/07/23 00:36:58;;;;;;;;;;;;;;;16.69;75.92;99655.50;4974144;28;20336;-61
2021/07/23 00:39:23;;;;;;;;;;;;;;;16.63;76.94;99661.22;4974936;28;19914;-60
2021/07/23 00:41:48;;;;;;;;;;;;;;;16.43;75.98;99652.00;4973028;28;20376;-60
2021/07/23 00:44:13;;;;;;;;;;;;;;;16.30;77.90;99655.25;4974665;28;19946;-60
2021/07/23 00:46:39;;;;;;;;;;;;;;;16.34;77.29;99651.72;4974259;28;20004;-61
2021/07/23 00:49:04;;;;;;;;;;;;;;;16.37;77.59;99650.38;4975659;28;19922;-60
2021/07/23 00:51:29;;;;;;;;;;;;;;;16.35;77.48;99652.56;4973970;28;20016;-61
2021/07/23 00:53:54;;;;;;;;;;;;;;;16.33;77.66;99642.00;4974710;28;19914;-60
2021/07/23 00:56:20;;;;;;;;;;;;;;;16.30;77.63;99655.25;4974190;28;20372;-60
2021/07/23 00:58:45;;;;;;;;;;;;;;;16.31;77.91;99646.06;4974418;28;20000;-61
2021/07/23 01:01:10;;;;;;;;;;;;;;;16.31;77.44;99648.75;4972878;28;19924;-60
2021/07/23 01:03:36;;;;;;;;;;;;;;;16.36;77.29;99654.19;4974822;28;19914;-60
2021/07/23 01:06:02;;;;;;;;;;;;;;;16.22;78.33;99644.97;4974016;28;20009;-60
2021/07/23 01:08:27;;;;;;;;;;;;;;;16.27;78.05;99644.97;4974469;28;19921;-60
2021/07/23 01:10:52;;;;;;;;;;;;;;;16.25;77.73;99647.97;4972694;28;20018;-60
2021/07/23 01:13:17;;;;;;;;;;;;;;;16.23;77.83;99644.72;4974193;28;19925;-61
2021/07/23 01:15:43;;;;;;;;;;;;;;;16.24;77.75;99653.63;4974050;28;19918;-60
2021/07/23 01:18:08;;;;;;;;;;;;;;;16.23;77.71;99646.59;4974246;28;20335;-61
2021/07/23 01:20:33;;;;;;;;;;;;;;;16.19;77.98;99649.03;4973890;28;19918;-61
2021/07/23 01:22:59;;;;;;;;;;;;;;;16.15;78.09;99643.34;4972993;28;19914;-61
2021/07/23 01:25:24;;;;;;;;;;;;;;;16.17;78.12;99634.94;4974052;28;20034;-61
2021/07/23 01:27:54;;;;;;;;;;;;;;;16.15;78.15;99640.66;4974190;28;20365;-60
2021/07/23 01:30:24;;;;;;;;;;;;;;;16.02;78.82;99643.06;4973624;28;19936;-60
2021/07/23 01:32:49;;;;;;;;;;;;;;;16.06;78.84;99634.13;4974026;28;19944;-60
2021/07/23 01:35:14;;;;;;;;;;;;;;;16.09;78.52;99638.19;4973868;28;20016;-60
2021/07/23 01:37:40;;;;;;;;;;;;;;;16.05;78.81;99637.94;4974039;28;20361;-60
2021/07/23 01:40:05;;;;;;;;;;;;;;;16.03;78.91;99629.28;4973772;28;19918;-60
2021/07/23 01:42:31;;;;;;;;;;;;;;;16.01;78.90;99630.63;4974124;28;19910;-60
2021/07/23 01:44:56;;;;;;;;;;;;;;;15.93;79.38;99631.97;4972972;28;19914;-60
2021/07/23 01:47:21;;;;;;;;;;;;;;;15.84;79.97;99625.44;4973611;28;19925;-60
2021/07/23 01:49:47;;;;;;;;;;;;;;;15.74;80.54;99621.63;4972945;28;20273;-60
2021/07/23 01:52:12;;;;;;;;;;;;;;;15.69;80.28;99621.63;4973442;28;19922;-60
2021/07/23 01:54:37;;;;;;;;;;;;;;;15.72;80.67;99629.22;4974057;28;19914;-60
2021/07/23 01:57:03;;;;;;;;;;;;;;;15.53;79.60;99620.75;4973589;28;19962;-60
2021/07/23 01:59:28;;;;;;;;;;;;;;;15.51;81.18;99622.09;4973805;28;19914;-60
2021/07/23 02:01:54;;;;;;;;;;;;;;;15.52;80.79;99627.25;4972282;28;20004;-60
2021/07/23 02:04:19;;;;;;;;;;;;;;;15.48;81.32;99619.94;4974055;28;19914;-60
2021/07/23 02:06:44;;;;;;;;;;;;;;;15.48;81.20;99622.63;4973529;28;19976;-60
2021/07/23 02:09:09;;;;;;;;;;;;;;;15.43;80.40;99625.31;4973881;28;19973;-60
2021/07/23 02:11:35;;;;;;;;;;;;;;;15.27;80.91;99619.84;4976790;28;19937;-60
2021/07/23 02:14:03;;;;;;;;;;;;;;;15.14;80.11;99617.63;4977317;28;20003;-60
2021/07/23 02:16:28;;;;;;;;;;;;;;;15.05;80.69;99617.31;4976773;28;19914;-60
2021/07/23 02:18:53;;;;;;;;;;;;;;;15.01;81.78;99613.50;4977201;28;19937;-60
2021/07/23 02:21:18;;;;;;;;;;;;;;;15.14;82.73;99617.63;4976894;28;19914;-60
2021/07/23 02:23:44;;;;;;;;;;;;;;;15.08;81.64;99611.41;4977118;28;19918;-60
2021/07/23 02:26:18;;;;;;;;;;;;;;;14.97;81.68;99612.41;4976813;28;19973;-60
2021/07/23 02:28:43;;;;;;;;;;;;;;;14.88;82.82;99606.69;4976972;28;20397;-60
2021/07/23 02:31:08;;;;;;;;;;;;;;;14.82;82.96;99613.13;4976457;28;19922;-60
2021/07/23 02:33:33;;;;;;;;;;;;;;;14.78;83.49;99613.94;4976693;28;19914;-60
2021/07/23 02:35:58;;;;;;;;;;;;;;;14.72;83.41;99613.06;4976656;28;19932;-60
2021/07/23 02:38:24;;;;;;;;;;;;;;;14.73;83.32;99613.91;4976955;28;20344;-60
2021/07/23 02:40:49;;;;;;;;;;;;;;;14.67;83.63;99613.03;4976479;28;19965;-61
2021/07/23 02:43:14;;;;;;;;;;;;;;;14.65;83.64;99604.38;4979044;28;20281;-60
2021/07/23 02:45:39;;;;;;;;;;;;;;;14.60;83.78;99607.06;4976184;28;19929;-60
2021/07/23 02:48:05;;;;;;;;;;;;;;;14.49;84.67;99600.75;4976803;28;19914;-60
2021/07/23 02:50:31;;;;;;;;;;;;;;;14.50;84.96;99609.66;4976112;28;19922;-60
2021/07/23 02:52:56;;;;;;;;;;;;;;;14.52;84.71;99599.41;4976618;28;20319;-60
2021/07/23 02:55:21;;;;;;;;;;;;;;;14.61;84.95;99600.59;4976263;28;20307;-60
2021/07/23 02:57:46;;;;;;;;;;;;;;;14.58;84.24;99595.72;4976534;28;19957;-60
2021/07/23 03:00:12;;;;;;;;;;;;;;;14.57;84.89;99596.78;4975965;28;19921;-60
2021/07/23 03:02:37;;;;;;;;;;;;;;;14.64;84.57;99594.69;4976555;28;19914;-61
2021/07/23 03:05:02;;;;;;;;;;;;;;;14.41;84.44;99593.16;4976334;28;20281;-60
2021/07/23 03:07:28;;;;;;;;;;;;;;;14.39;83.70;99590.69;4976385;28;19921;-60
2021/07/23 03:09:53;;;;;;;;;;;;;;;14.23;84.53;99591.66;4976292;28;19921;-60
2021/07/23 03:12:18;;;;;;;;;;;;;;;14.16;85.62;99591.06;4958476;28;20007;-60
2021/07/23 03:14:43;;;;;;;;;;;;;;;14.22;85.81;99584.63;4976146;28;19974;-60
2021/07/23 03:17:09;;;;;;;;;;;;;;;14.20;84.65;99586.78;4975788;28;19925;-61
2021/07/23 03:19:36;;;;;;;;;;;;;;;14.12;84.59;99589.94;4976197;28;19953;-60
2021/07/23 03:22:01;;;;;;;;;;;;;;;14.09;84.60;99583.19;4974425;28;20459;-60
2021/07/23 03:24:26;;;;;;;;;;;;;;;13.95;84.96;99585.50;4976083;28;20008;-60
2021/07/23 03:26:51;;;;;;;;;;;;;;;13.86;85.24;99580.84;4975635;28;20443;-60
2021/07/23 03:29:17;;;;;;;;;;;;;;;13.95;86.74;99580.13;4975779;28;19914;-60
2021/07/23 03:31:42;;;;;;;;;;;;;;;14.02;86.12;99578.00;4975482;28;19918;-61
2021/07/23 03:34:07;;;;;;;;;;;;;;;14.10;85.89;99571.31;4975959;28;19914;-60
2021/07/23 03:36:32;;;;;;;;;;;;;;;13.99;85.81;99575.81;4975484;28;20028;-61
2021/07/23 03:38:58;;;;;;;;;;;;;;;14.03;85.86;99571.56;4975773;28;20349;-60
2021/07/23 03:41:23;;;;;;;;;;;;;;;13.96;85.48;99570.97;4975276;28;19918;-62
2021/07/23 03:43:48;;;;;;;;;;;;;;;13.94;85.24;99581.16;4975596;28;19939;-61
2021/07/23 03:46:13;;;;;;;;;;;;;;;13.92;84.99;99574.41;4975138;28;19994;-61
2021/07/23 03:48:39;;;;;;;;;;;;;;;13.82;85.84;99575.13;4975665;28;20013;-61
2021/07/23 03:51:04;;;;;;;;;;;;;;;13.81;86.89;99568.13;4974994;28;20355;-61
2021/07/23 03:53:29;;;;;;;;;;;;;;;13.77;87.04;99575.09;4975525;28;19960;-61
2021/07/23 03:55:54;;;;;;;;;;;;;;;13.88;86.96;99574.13;4974987;28;19914;-61
2021/07/23 03:58:20;;;;;;;;;;;;;;;14.03;86.16;99566.16;4975256;28;19914;-61
2021/07/23 04:00:45;;;;;;;;;;;;;;;14.17;85.91;99568.44;4974879;28;20269;-61
2021/07/23 04:03:10;;;;;;;;;;;;;;;14.20;84.77;99571.44;4973999;28;20284;-61
2021/07/23 04:05:35;;;;;;;;;;;;;;;14.32;83.51;99565.03;4974866;28;19981;-61
2021/07/23 04:08:01;;;;;;;;;;;;;;;14.35;82.13;99568.03;4975205;28;19977;-61
2021/07/23 04:10:26;;;;;;;;;;;;;;;14.37;81.97;99565.06;4974830;28;19918;-61
2021/07/23 04:12:51;;;;;;;;;;;;;;;14.67;81.33;99559.09;4975105;28;20004;-61
2021/07/23 04:15:17;;;;;;;;;;;;;;;14.62;79.64;99572.53;4974554;28;19926;-61
2021/07/23 04:17:42;;;;;;;;;;;;;;;14.53;80.95;99571.41;4975205;28;19914;-61
2021/07/23 04:20:07;;;;;;;;;;;;;;;14.51;81.43;99570.84;4974881;28;19920;-61
2021/07/23 04:22:34;;;;;;;;;;;;;;;14.58;81.51;99566.06;4974904;28;19910;-61
2021/07/23 04:24:59;;;;;;;;;;;;;;;14.62;80.39;99567.16;4975001;28;19937;-61
2021/07/23 04:27:24;;;;;;;;;;;;;;;15.21;78.06;99575.00;4974585;28;20364;-61
2021/07/23 04:29:49;;;;;;;;;;;;;;;16.01;75.52;99571.94;4974669;28;19914;-61
2021/07/23 04:32:15;;;;;;;;;;;;;;;16.24;74.98;99576.00;4974004;28;19996;-61
2021/07/23 04:34:40;;;;;;;;;;;;;;;16.66;74.27;99576.78;4974799;28;19910;-61
2021/07/23 04:37:06;;;;;;;;;;;;;;;17.25;72.21;99576.06;4976782;28;19992;-61
2021/07/23 04:39:31;;;;;;;;;;;;;;;17.37;70.19;99573.84;4974946;28;19913;-61
2021/07/23 04:41:56;;;;;;;;;;;;;;;17.57;68.14;99570.22;4974615;28;20352;-61
2021/07/23 04:44:21;;;;;;;;;;;;;;;17.81;66.81;99575.75;4973445;28;20373;-61
2021/07/23 04:46:47;;;;;;;;;;;;;;;18.47;65.84;99581.75;4974310;28;19925;-60
2021/07/23 04:49:12;;;;;;;;;;;;;;;18.69;65.53;99582.06;4974440;28;19914;-61
2021/07/23 04:51:37;;;;;;;;;;;;;;;19.21;62.86;99585.03;4974065;28;19922;-61
2021/07/23 04:54:02;;;;;;;;;;;;;;;19.23;63.54;99590.19;4974704;28;20458;-61
2021/07/23 04:56:28;;;;;;;;;;;;;;;18.56;64.76;99585.47;4974221;28;19918;-61
2021/07/23 04:58:53;;;;;;;;;;;;;;;18.82;63.80;99582.50;4974546;28;20420;-61
2021/07/23 05:01:18;;;;;;;;;;;;;;;18.36;64.84;99585.66;4974005;28;19918;-61
2021/07/23 05:03:43;;;;;;;;;;;;;;;18.36;66.27;99586.47;4973460;28;19918;-61
2021/07/23 05:06:09;;;;;;;;;;;;;;;18.45;64.41;99578.53;4973982;28;20376;-60
2021/07/23 05:08:34;;;;;;;;;;;;;;;19.15;62.71;99576.16;4974441;28;19957;-61
2021/07/23 05:11:00;;;;;;;;;;;;;;;19.75;60.11;99588.44;4973905;28;19925;-61
2021/07/23 05:13:25;;;;;;;;;;;;;;;20.21;58.05;99590.44;4974355;28;20005;-61
2021/07/23 05:15:50;;;;;;;;;;;;;;;19.93;58.87;99594.97;4974170;28;20365;-61
2021/07/23 05:18:15;;;;;;;;;;;;;;;20.35;58.33;99591.28;4974383;28;19913;-61
2021/07/23 05:20:41;;;;;;;;;;;;;;;22.44;53.00;99598.13;4974122;28;19918;-61
2021/07/23 05:23:07;;;;;;;;;;;;;;;22.11;53.63;99593.69;4974492;28;19914;-61
2021/07/23 05:25:32;;;;;;;;;;;;;;;21.60;54.88;99592.19;4972610;28;19929;-61
2021/07/23 05:27:57;;;;;;;;;;;;;;;21.90;53.99;99589.88;4974335;28;19914;-61
2021/07/23 05:30:23;;;;;;;;;;;;;;;22.51;52.35;99593.81;4956473;28;19925;-61
2021/07/23 05:32:48;;;;;;;;;;;;;;;22.81;52.33;99592.22;4974442;28;19910;-61
2021/07/23 05:35:13;;;;;;;;;;;;;;;22.45;52.59;99597.81;4973938;28;19968;-60
2021/07/23 05:37:38;;;;;;;;;;;;;;;22.83;51.62;99597.38;4974209;28;20316;-61
2021/07/23 05:40:04;;;;;;;;;;;;;;;23.16;51.14;99595.09;4973901;28;19918;-61
2021/07/23 05:42:30;;;;;;;;;;;;;;;23.52;49.90;99598.72;4974097;28;19910;-61
2021/07/23 05:44:56;;;;;;;;;;;;;;;23.40;50.63;99597.41;4975318;28;19921;-61
2021/07/23 05:47:21;;;;;;;;;;;;;;;23.93;49.10;99592.00;4977663;28;19926;-61
2021/07/23 05:49:46;;;;;;;;;;;;;;;24.39;47.88;99595.97;4977828;28;19937;-61
2021/07/23 05:52:11;;;;;;;;;;;;;;;24.45;47.97;99595.50;4977239;28;19926;-61
2021/07/23 05:54:37;;;;;;;;;;;;;;;24.50;48.29;99591.81;4977887;28;19953;-61
2021/07/23 05:57:02;;;;;;;;;;;;;;;25.05;46.47;99599.16;4977291;28;20352;-61
2021/07/23 05:59:27;;;;;;;;;;;;;;;24.03;48.56;99591.69;4977558;28;20356;-61
2021/07/23 06:01:53;;;;;;;;;;;;;;;23.64;49.68;99594.25;4976984;28;19918;-61
2021/07/23 06:04:18;;;;;;;;;;;;;;;24.30;48.17;99591.31;4977690;28;19921;-61
2021/07/23 06:06:43;;;;;;;;;;;;;;;26.14;44.05;99594.75;4977052;28;20323;-61
2021/07/23 06:09:08;;;;;;;;;;;;;;;25.90;44.64;99598.19;4977291;28;19921;-61
2021/07/23 06:11:34;;;;;;;;;;;;;;;25.81;44.28;99597.44;4977062;28;19950;-61
2021/07/23 06:13:59;;;;;;;;;;;;;;;26.15;43.46;99601.03;4977319;28;19914;-61
2021/07/23 06:16:24;;;;;;;;;;;;;;;25.81;43.72;99603.72;4977010;28;19922;-61
2021/07/23 06:18:49;;;;;;;;;;;;;;;25.72;44.05;99599.44;4977362;28;19914;-61
2021/07/23 06:21:15;;;;;;;;;;;;;;;25.91;43.53;99602.56;4976961;28;19960;-61
2021/07/23 06:23:40;;;;;;;;;;;;;;;26.66;41.90;99604.44;4977314;28;19914;-60
2021/07/23 06:26:05;;;;;;;;;;;;;;;25.59;43.93;99593.88;4976933;28;19918;-61
2021/07/23 06:28:31;;;;;;;;;;;;;;;24.96;44.98;99606.63;4977089;28;19914;-61
2021/07/23 06:31:02;;;;;;;;;;;;;;;25.46;44.71;99607.84;4976613;28;20253;-61
2021/07/23 06:33:27;;;;;;;;;;;;;;;24.94;44.98;99603.44;4977264;28;19920;-61
2021/07/23 06:35:52;;;;;;;;;;;;;;;25.46;44.61;99603.19;4976669;28;19997;-61
2021/07/23 06:38:18;;;;;;;;;;;;;;;23.81;48.19;99598.13;4979463;28;20420;-61
2021/07/23 06:40:43;;;;;;;;;;;;;;;23.11;50.20;99594.44;4976648;28;19922;-61
2021/07/23 06:43:08;;;;;;;;;;;;;;;22.63;51.41;99595.19;4976798;28;19921;-60
2021/07/23 06:45:33;;;;;;;;;;;;;;;21.49;54.52;99596.22;4976603;28;19925;-61
2021/07/23 06:47:59;;;;;;;;;;;;;;;22.01;54.02;99593.94;4976929;28;20383;-60
2021/07/23 06:50:24;;;;;;;;;;;;;;;23.76;49.35;99598.28;4974721;28;19984;-60
2021/07/23 06:52:49;;;;;;;;;;;;;;;25.99;43.69;99601.66;4976709;28;19914;-60
2021/07/23 06:55:14;;;;;;;;;;;;;;;24.41;46.93;99607.41;4975900;28;20021;-61
2021/07/23 06:57:40;;;;;;;;;;;;;;;25.32;45.10;99605.34;4976562;28;19914;-60
2021/07/23 07:00:05;;;;;;;;;;;;;;;24.87;45.45;99605.88;4976456;28;20364;-61
2021/07/23 07:02:31;;;;;;;;;;;;;;;24.35;46.85;99604.03;4976443;28;19914;-60
2021/07/23 07:04:58;;;;;;;;;;;;;;;25.13;46.24;99606.53;4976417;28;19914;-60
2021/07/23 07:07:23;;;;;;;;;;;;;;;24.80;46.38;99608.31;4976071;28;19918;-61
2021/07/23 07:09:48;;;;;;;;;;;;;;;26.68;41.84;99607.63;4976307;28;19944;-60
2021/07/23 07:12:14;;;;;;;;;;;;;;;25.57;44.57;99606.31;4975922;28;20321;-61
2021/07/23 07:14:39;;;;;;;;;;;;;;;25.18;45.65;99614.59;4976471;28;19910;-61
2021/07/23 07:17:04;;;;;;;;;;;;;;;26.65;41.49;99613.81;4975923;28;19922;-60
2021/07/23 07:19:30;;;;;;;;;;;;;;;28.32;38.72;99609.13;4975011;28;19914;-61
2021/07/23 07:21:55;;;;;;;;;;;;;;;26.25;42.98;99606.91;4975840;28;19914;-61
2021/07/23 07:24:20;;;;;;;;;;;;;;;27.17;40.97;99607.66;4975053;28;19968;-61
2021/07/23 07:26:46;;;;;;;;;;;;;;;27.51;40.22;99609.16;4975619;28;20291;-60
2021/07/23 07:29:11;;;;;;;;;;;;;;;27.83;39.38;99606.59;4974714;28;20361;-60
2021/07/23 07:31:37;;;;;;;;;;;;;;;25.00;45.21;99607.56;4975596;28;19918;-60
2021/07/23 07:34:02;;;;;;;;;;;;;;;25.61;44.68;99610.81;4975943;28;20380;-60
2021/07/23 07:36:28;;;;;;;;;;;;;;;27.32;40.92;99608.94;4975381;28;19918;-61
2021/07/23 07:38:53;;;;;;;;;;;;;;;24.90;45.48;99607.94;4975871;28;19914;-61
2021/07/23 07:41:18;;;;;;;;;;;;;;;25.97;43.26;99612.19;4975297;28;20004;-60
2021/07/23 07:43:44;;;;;;;;;;;;;;;27.78;39.74;99608.75;4975799;28;19977;-60
2021/07/23 07:46:09;;;;;;;;;;;;;;;28.01;38.08;99615.38;4975328;28;19918;-61
2021/07/23 07:48:34;;;;;;;;;;;;;;;26.42;42.48;99611.44;4975872;28;20017;-61
2021/07/23 07:50:59;;;;;;;;;;;;;;;26.94;41.14;99614.78;4975037;28;20292;-61
2021/07/23 07:53:25;;;;;;;;;;;;;;;27.83;39.71;99608.53;4975525;28;19925;-60
2021/07/23 07:55:50;;;;;;;;;;;;;;;30.12;35.71;99611.44;4975408;28;19980;-61
2021/07/23 07:58:15;;;;;;;;;;;;;;;29.21;36.72;99612.63;4975816;28;20320;-61
2021/07/23 08:00:44;;;;;;;;;;;;;;;27.15;41.30;99603.66;4975048;28;19918;-61
2021/07/23 08:03:09;;;;;;;;;;;;;;;25.87;43.20;99609.03;4975637;28;20324;-61
2021/07/23 08:05:34;;;;;;;;;;;;;;;27.24;40.95;99607.94;4973784;28;20372;-61
2021/07/23 08:08:01;;;;;;;;;;;;;;;27.48;41.39;99598.03;4974838;28;19914;-61
2021/07/23 08:10:26;;;;;;;;;;;;;;;26.51;42.43;99607.78;4973465;28;20010;-60
2021/07/23 08:12:52;;;;;;;;;;;;;;;28.38;38.90;99599.47;4975424;28;19910;-61
2021/07/23 08:15:17;;;;;;;;;;;;;;;28.31;39.13;99598.47;4975005;28;20261;-60
2021/07/23 08:17:43;;;;;;;;;;;;;;;28.52;37.53;99598.25;4975187;28;19972;-61
2021/07/23 08:20:09;;;;;;;;;;;;;;;28.04;39.63;99598.13;4973646;28;20017;-61
2021/07/23 08:22:34;;;;;;;;;;;;;;;28.63;37.91;99590.25;4975078;28;20008;-60
2021/07/23 08:24:59;;;;;;;;;;;;;;;27.90;39.66;99590.25;4975086;28;20412;-61
2021/07/23 08:27:25;;;;;;;;;;;;;;;29.10;37.05;99592.25;4974581;28;19918;-61
2021/07/23 08:29:50;;;;;;;;;;;;;;;29.89;35.36;99592.03;4977540;28;19928;-61
2021/07/23 08:32:15;;;;;;;;;;;;;;;26.12;42.97;99593.47;4974607;28;19972;-60
2021/07/23 08:34:40;;;;;;;;;;;;;;;27.31;40.83;99583.38;4975123;28;19945;-61
2021/07/23 08:37:06;;;;;;;;;;;;;;;26.86;41.70;99581.53;4974467;28;20380;-61
2021/07/23 08:39:31;;;;;;;;;;;;;;;26.35;42.91;99583.69;4974875;28;19914;-61
2021/07/23 08:41:56;;;;;;;;;;;;;;;27.32;41.70;99576.72;4974528;28;20387;-61
2021/07/23 08:44:22;;;;;;;;;;;;;;;26.93;42.17;99575.44;4975063;28;19968;-61
2021/07/23 08:46:48;;;;;;;;;;;;;;;28.20;39.12;99572.56;4974471;28;20361;-60
2021/07/23 08:49:14;;;;;;;;;;;;;;;27.73;40.47;99568.47;4974787;28;20395;-60
2021/07/23 08:51:39;;;;;;;;;;;;;;;26.63;42.34;99567.44;4974262;28;19922;-60
2021/07/23 08:54:04;;;;;;;;;;;;;;;28.06;39.99;99560.03;4974761;28;19961;-60
2021/07/23 08:56:30;;;;;;;;;;;;;;;25.74;44.85;99559.53;4974264;28;19922;-60
2021/07/23 08:58:55;;;;;;;;;;;;;;;26.27;44.36;99551.63;4974209;28;19914;-61
2021/07/23 09:01:20;;;;;;;;;;;;;;;27.30;41.79;99550.69;4974380;28;19918;-60
2021/07/23 09:03:46;;;;;;;;;;;;;;;26.63;42.56;99555.63;4974672;28;19914;-60
2021/07/23 09:06:15;;;;;;;;;;;;;;;27.08;42.92;99549.19;4972978;28;19918;-60
2021/07/23 09:08:47;;;;;;;;;;;;;;;28.50;39.17;99540.72;4973316;28;20288;-60
2021/07/23 09:11:13;;;;;;;;;;;;;;;25.48;45.62;99545.22;4974180;28;19925;-60
2021/07/23 09:13:38;;;;;;;;;;;;;;;24.38;48.92;99547.81;4974541;28;19914;-60
2021/07/23 09:16:03;;;;;;;;;;;;;;;26.29;45.45;99538.38;4974215;28;20001;-60
2021/07/23 09:18:31;;;;;;;;;;;;;;;26.01;45.59;99541.72;4974974;28;19913;-60
2021/07/23 09:20:56;;;;;;;;;;;;;;;25.90;45.66;99540.53;4978100;28;20269;-61
2021/07/23 09:23:37;;;;;;;;;;;;;;;26.37;43.90;99540.22;4978364;28;19914;-61
2021/07/23 09:26:11;;;;;;;;;;;;;;;25.19;46.58;99535.91;4978019;28;19918;-60
2021/07/23 09:28:38;;;;;;;;;;;;;;;25.81;45.56;99531.56;4978275;28;19914;-60
2021/07/23 09:31:03;;;;;;;;;;;;;;;25.64;46.55;99531.69;4977810;28;20444;-60
2021/07/23 09:33:37;;;;;;;;;;;;;;;25.67;45.77;99539.25;4976956;28;19961;-60
2021/07/23 09:36:03;;;;;;;;;;;;;;;26.50;43.91;99529.25;4977750;28;19985;-60
2021/07/23 09:38:35;;;;;;;;;;;;;;;25.55;45.64;99529.81;4978103;28;20380;-61
2021/07/23 09:41:01;;;;;;;;;;;;;;;27.08;43.19;99522.53;4977874;28;19918;-60
2021/07/23 09:43:39;;;;;;;;;;;;;;;28.45;39.59;99527.19;4978032;28;19920;-60
2021/07/23 09:46:17;;;;;;;;;;;;;;;26.49;44.08;99528.44;4976308;28;20329;-60
2021/07/23 09:48:42;;;;;;;;;;;;;;;26.65;43.77;99520.34;4978200;28;19918;-60
2021/07/23 09:51:08;;;;;;;;;;;;;;;26.22;44.59;99524.38;4977407;28;20376;-61
2021/07/23 09:53:34;;;;;;;;;;;;;;;26.01;45.74;99519.75;4977829;28;19921;-61
2021/07/23 09:56:00;;;;;;;;;;;;;;;27.22;42.31;99519.41;4977524;28;19925;-61
2021/07/23 09:58:25;;;;;;;;;;;;;;;25.84;44.87;99519.88;4978026;28;19914;-61
2021/07/23 10:00:52;;;;;;;;;;;;;;;27.00;42.37;99508.88;4976116;28;19918;-61
2021/07/23 10:03:17;;;;;;;;;;;;;;;27.27;41.43;99502.66;4977882;28;19932;-61
2021/07/23 10:05:43;;;;;;;;;;;;;;;27.17;42.54;99497.63;4977463;28;20348;-61
2021/07/23 10:08:10;;;;;;;;;;;;;;;28.17;40.50;99506.00;4976272;28;19921;-61
2021/07/23 10:10:38;;;;;;;;;;;;;;;27.66;41.18;99508.53;4959657;28;19922;-60
2021/07/23 10:13:04;;;;;;;;;;;;;;;27.04;42.71;99494.09;4976258;28;19968;-61
2021/07/23 10:15:29;;;;;;;;;;;;;;;26.44;43.52;99495.69;4977046;28;19918;-60
2021/07/23 10:17:54;;;;;;;;;;;;;;;26.02;44.51;99498.59;4976230;28;19999;-61
2021/07/23 10:20:20;;;;;;;;;;;;;;;27.12;42.63;99495.09;4976971;28;20387;-61
2021/07/23 10:22:48;;;;;;;;;;;;;;;27.53;40.95;99487.69;4977263;28;20321;-61
2021/07/23 10:25:14;;;;;;;;;;;;;;;27.26;41.44;99490.06;4976834;28;19960;-61
2021/07/23 10:27:40;;;;;;;;;;;;;;;28.24;39.74;99477.81;4977251;28;20000;-61
2021/07/23 10:30:06;;;;;;;;;;;;;;;28.04;40.72;99481.63;4974918;28;19918;-61
2021/07/23 10:32:32;;;;;;;;;;;;;;;28.45;38.92;99480.34;4975577;28;20383;-61
2021/07/23 10:34:59;;;;;;;;;;;;;;;26.84;42.93;99479.34;4977121;28;19915;-61
2021/07/23 10:37:30;;;;;;;;;;;;;;;26.41;43.59;99477.94;4977008;28;20472;-61
2021/07/23 10:40:08;;;;;;;;;;;;;;;25.63;45.57;99475.19;4992514;28;19913;-61
2021/07/23 10:42:34;;;;;;;;;;;;;;;26.30;43.48;99464.97;4996026;28;19964;-61
2021/07/23 10:44:59;;;;;;;;;;;;;;;26.99;41.70;99453.06;4996303;28;19917;-61
2021/07/23 10:47:43;;;;;;;;;;;;;;;27.42;40.04;99448.06;4995926;28;19925;-61
2021/07/23 10:50:10;;;;;;;;;;;;;;;27.68;37.40;99451.16;4994576;28;19964;-61
2021/07/23 10:52:36;;;;;;;;;;;;;;;28.32;36.92;99440.22;4996278;28;19939;-61
2021/07/23 10:55:12;;;;;;;;;;;;;;;29.05;35.79;99444.28;4995676;28;19920;-61
2021/07/23 10:57:37;;;;;;;;;;;;;;;29.25;35.06;99447.91;4996084;28;19910;-61
2021/07/23 11:00:04;;;;;;;;;;;;;;;28.71;36.67;99446.72;4995663;28;20427;-61
2021/07/23 11:02:29;;;;;;;;;;;;;;;28.95;35.43;99434.63;4995989;28;20416;-61
2021/07/23 11:05:07;;;;;;;;;;;;;;;29.91;35.09;99434.22;4995859;28;20005;-62
2021/07/23 11:07:32;;;;;;;;;;;;;;;28.52;37.44;99433.66;4995569;28;20368;-61
2021/07/23 11:09:57;;;;;;;;;;;;;;;27.48;38.97;99424.63;4996022;28;20000;-61
2021/07/23 11:12:23;;;;;;;;;;;;;;;27.92;39.21;99421.91;4995450;28;19921;-61
2021/07/23 11:14:55;;;;;;;;;;;;;;;27.13;39.42;99413.38;4996034;28;20284;-61
2021/07/23 11:17:21;;;;;;;;;;;;;;;26.79;40.87;99410.84;4995312;28;20340;-61
2021/07/23 11:19:48;;;;;;;;;;;;;;;25.12;43.54;99407.50;4995742;28;20004;-61
2021/07/23 11:22:21;;;;;;;;;;;;;;;24.53;44.14;99404.84;4995230;28;19920;-61
2021/07/23 11:24:46;;;;;;;;;;;;;;;24.66;44.40;99403.81;4995612;28;19977;-61
2021/07/23 11:27:11;;;;;;;;;;;;;;;26.10;40.14;99395.25;4993871;28;19918;-61
2021/07/23 11:29:38;;;;;;;;;;;;;;;26.99;38.73;99397.28;4994170;28;19914;-61
2021/07/23 11:32:04;;;;;;;;;;;;;;;27.83;37.19;99396.47;4995164;28;19922;-61
2021/07/23 11:34:36;;;;;;;;;;;;;;;27.90;38.44;99393.91;4995355;28;20269;-61
2021/07/23 11:37:10;;;;;;;;;;;;;;;27.77;37.51;99392.38;4994929;28;19925;-61
2021/07/23 11:39:36;;;;;;;;;;;;;;;28.69;35.90;99382.84;4994287;28;19917;-61
2021/07/23 11:42:05;;;;;;;;;;;;;;;28.99;35.10;99385.06;4992822;28;19918;-61
2021/07/23 11:44:31;;;;;;;;;;;;;;;28.84;34.81;99377.63;4995083;28;20356;-61
2021/07/23 11:46:57;;;;;;;;;;;;;;;27.56;37.18;99376.91;4994735;28;19924;-61
2021/07/23 11:49:22;;;;;;;;;;;;;;;26.67;37.87;99367.66;4993799;28;19914;-61
2021/07/23 11:51:48;;;;;;;;;;;;;;;28.34;35.68;99378.06;4994496;28;19929;-61
2021/07/23 11:54:22;;;;;;;;;;;;;;;28.53;35.09;99379.31;4995242;28;19976;-61
2021/07/23 11:56:47;;;;;;;;;;;;;;;28.19;35.69;99370.63;4993494;28;20008;-61
2021/07/23 11:59:12;;;;;;;;;;;;;;;27.68;37.38;99368.56;4995032;28;19968;-61
2021/07/23 12:01:38;;;;;;;;;;;;;;;25.73;38.94;99364.97;4994592;28;19918;-61
2021/07/23 12:04:10;;;;;;;;;;;;;;;27.40;36.61;99362.28;5091086;27;19943;-60
2021/07/23 12:06:38;;;;;;;;;;;;;;;26.82;37.23;99355.16;5051047;27;19929;-60
2021/07/23 12:09:04;;;;;;;;;;;;;;;27.35;36.99;99360.59;5030869;28;19921;-60
2021/07/23 12:11:30;;;;;;;;;;;;;;;26.69;37.26;99350.84;5029328;28;20401;-61
2021/07/23 12:13:56;;;;;;;;;;;;;;;25.94;39.12;99341.03;5029585;28;19917;-60
2021/07/23 12:16:21;;;;;;;;;;;;;;;28.09;36.56;99349.13;5030307;28;19944;-60
2021/07/23 12:18:55;;;;;;;;;;;;;;;28.90;33.92;99338.34;5030744;28;19917;-61
2021/07/23 12:21:24;;;;;;;;;;;;;;;29.49;30.89;99341.91;5030418;28;19921;-61
2021/07/23 12:23:59;;;;;;;;;;;;;;;27.19;36.03;99330.28;5030676;28;20395;-60
2021/07/23 12:26:28;;;;;;;;;;;;;;;26.66;36.80;99324.06;5030355;28;20264;-61
2021/07/23 12:28:54;;;;;;;;;;;;;;;27.07;35.30;99325.59;5029321;28;19917;-60
2021/07/23 12:31:19;;;;;;;;;;;;;;;26.09;36.96;99325.00;5030131;28;19928;-60
2021/07/23 12:33:44;;;;;;;;;;;;;;;26.77;34.79;99308.66;5030621;28;19917;-60
2021/07/23 12:36:22;;;;;;;;;;;;;;;27.59;32.49;99307.38;5030232;28;19928;-60
2021/07/23 12:39:03;;;;;;;;;;;;;;;26.74;34.86;99297.56;5030085;28;19917;-61
2021/07/23 12:41:28;;;;;;;;;;;;;;;27.08;34.74;99307.16;5029834;28;20303;-61